Salt Lake City, Utah
Traffic Map
Current Weather Conditions
Salt Lake City, Utah
Clear
Clear
42°
Feels Like: 42°
Wind Chill: 42° Ceiling: Unl
Heat Index: 42° Visibility: 10mi
Dew Point: 29° Wind: 3mph
Humidity: 60% Direction: 170° (S)
Pressure: 30.27in Gusts: 0mph
Raw Report DataKSLC 301153Z 17003KT 10SM CLR 06/M02 A3027 RMK AO2 SLP230 T00561017 10089 20039 52001
Traffic Incident Summary
Active as of:
Severity:
Category:
InformationThere was an issue retrieving the traffic information for this location. Please try a different location or try again shortly.
Advertisements
Track Severe Weather on mobile